SWR9LC LSZH-EDDB
Flight info
| Callsign | SWR9LC |
|---|---|
| Flight time | N/A |
| Altitude | 34000 |
| Route | DEGES Z1 ETAGO DCT TIKNI/N0449F350 T279 TAMEB T278 KLF KLF1R |
| Aircraft | A321/M-SDE3FGHIRWY/LB1 |
Departure
| Time | 2026-04-30 22:53 |
|---|---|
| Airport | Zürich Airport (LSZH) |
Arrival
| Time | N/A |
|---|---|
| Airport | Berlin Brandenburg Airport (EDDB) |
| Time | Latitude | Longitude | Altitude | Speed | Heading |
|---|---|---|---|---|---|
| 2026-04-30 22:22 | 47.45446 | 8.55694 | 1402 ft | 0 kts | 184° |
| 2026-04-30 22:41 | 47.45448 | 8.55694 | 1397 ft | 2 kts | 184° |
| 2026-04-30 22:42 | 47.45508 | 8.55762 | 1402 ft | 4 kts | 276° |
| 2026-04-30 22:43 | 47.45507 | 8.55772 | 1402 ft | 2 kts | 276° |
| 2026-04-30 22:47 | 47.45514 | 8.55817 | 1405 ft | 7 kts | 128° |
| 2026-04-30 22:47 | 47.45492 | 8.55994 | 1397 ft | 7 kts | 99° |
| 2026-04-30 22:48 | 47.45478 | 8.56166 | 1397 ft | 12 kts | 96° |
| 2026-04-30 22:49 | 47.45594 | 8.56488 | 1399 ft | 13 kts | 95° |
| 2026-04-30 22:49 | 47.45565 | 8.56879 | 1399 ft | 13 kts | 96° |
| 2026-04-30 22:50 | 47.45583 | 8.57006 | 1409 ft | 0 kts | 38° |
| 2026-04-30 22:51 | 47.45629 | 8.57024 | 1408 ft | 9 kts | 9° |
| 2026-04-30 22:51 | 47.45664 | 8.56978 | 1407 ft | 0 kts | 276° |
| 2026-04-30 22:52 | 47.45673 | 8.56862 | 1409 ft | 40 kts | 276° |
| 2026-04-30 22:53 | 47.45829 | 8.54732 | 1441 ft | 154 kts | 278° |
| 2026-04-30 22:53 | 47.46062 | 8.51658 | 2686 ft | 156 kts | 280° |
| 2026-04-30 22:53 | 47.46173 | 8.49981 | 3044 ft | 172 kts | 278° |
| 2026-04-30 22:54 | 47.46101 | 8.46187 | 3630 ft | 204 kts | 242° |
| 2026-04-30 22:55 | 47.42529 | 8.46300 | 4478 ft | 227 kts | 115° |
| 2026-04-30 22:55 | 47.42715 | 8.51268 | 5255 ft | 264 kts | 72° |
| 2026-04-30 22:56 | 47.43921 | 8.56506 | 6727 ft | 275 kts | 72° |
| 2026-04-30 22:56 | 47.47847 | 8.62267 | 8970 ft | 286 kts | 23° |
| 2026-04-30 22:57 | 47.51415 | 8.64860 | 10500 ft | 287 kts | 30° |
| 2026-04-30 22:57 | 47.55088 | 8.67851 | 11067 ft | 324 kts | 31° |
| 2026-04-30 22:58 | 47.59278 | 8.71305 | 11658 ft | 354 kts | 30° |
| 2026-04-30 22:59 | 47.65883 | 8.76555 | 13682 ft | 363 kts | 29° |
| 2026-04-30 22:59 | 47.72619 | 8.81819 | 15521 ft | 370 kts | 29° |